METAR Data
IDs: Format: Raw Decoded Include TAF

Data at: 0828 UTC 07 Apr 2020

METAR for:KOKV (Winchester Rgnl, VA, US)
Text:KOKV 070815Z AUTO 00000KT 10SM SCT055 BKN070 OVC080 09/05 A2994 RMK AO2
Temperature: 9.0°C ( 48°F)
Dewpoint: 5.0°C ( 41°F) [RH = 76%]
Pressure (altimeter):29.94 inches Hg (1014.0 mb)
Winds:calm
Visibility:10 or more sm (16+ km)
Ceiling:7000 feet AGL
Clouds: scattered clouds at 5500 feet AGL, broken clouds at 7000 feet AGL, overcast cloud deck at 8000 feet AGL
QC Flag:automated observation with no human augmentation